createdAt,value
2023-01-10T00:00:54.490Z,67.54
2023-01-10T00:03:24.337Z,66.47
2023-01-10T00:05:54.748Z,65.94
2023-01-10T00:08:24.952Z,67.95
2023-01-10T00:10:54.512Z,67.13
2023-01-10T00:13:28.320Z,66.45
2023-01-10T00:15:58.784Z,66.00
2023-01-10T00:18:28.378Z,67.01
2023-01-10T00:21:01.065Z,67.39
2023-01-10T00:23:30.172Z,65.49
2023-01-10T00:25:59.279Z,64.59
2023-01-10T00:28:28.662Z,65.05
2023-01-10T00:31:01.622Z,63.36
2023-01-10T00:33:32.162Z,64.01
2023-01-10T00:36:03.680Z,64.09
2023-01-10T00:38:35.747Z,64.66
2023-01-10T00:41:28.831Z,62.57
2023-01-10T00:43:57.145Z,64.32
2023-01-10T00:46:29.752Z,66.05
2023-01-10T00:49:08.510Z,67.28
2023-01-10T00:51:38.961Z,65.55
2023-01-10T00:54:08.010Z,67.03
2023-01-10T00:56:37.448Z,67.84
2023-01-10T00:59:07.399Z,69.73
2023-01-10T01:01:36.879Z,69.06
2023-01-10T01:04:06.377Z,66.99
2023-01-10T01:06:35.596Z,68.81
2023-01-10T01:09:06.029Z,66.30
2023-01-10T01:11:35.069Z,67.21
2023-01-10T01:14:04.688Z,68.45
2023-01-10T01:16:34.262Z,67.17
2023-01-10T01:19:05.787Z,66.12
2023-01-10T01:21:35.058Z,66.68
2023-01-10T01:24:05.960Z,67.19
2023-01-10T01:26:35.990Z,65.79
2023-01-10T01:29:05.510Z,65.64
2023-01-10T01:31:34.743Z,64.52
2023-01-10T01:34:04.183Z,66.88
2023-01-10T01:36:34.832Z,67.63
2023-01-10T01:39:07.622Z,68.39
2023-01-10T01:41:55.868Z,69.83
2023-01-10T01:44:26.387Z,69.25
2023-01-10T01:47:04.250Z,68.20
2023-01-10T01:49:36.965Z,69.74
2023-01-10T01:52:10.933Z,68.18
2023-01-10T01:54:41.475Z,68.87
2023-01-10T01:57:15.179Z,71.19
2023-01-10T01:59:48.469Z,70.64
2023-01-10T02:02:22.093Z,73.29
2023-01-10T02:04:55.056Z,72.87
2023-01-10T02:07:26.456Z,71.34
2023-01-10T02:10:01.594Z,75.46
2023-01-10T02:12:33.234Z,74.02
2023-01-10T02:15:03.713Z,76.93
2023-01-10T02:17:33.600Z,79.14
2023-01-10T02:20:07.239Z,77.46
2023-01-10T02:23:03.749Z,80.03
2023-01-10T02:25:57.584Z,85.40
2023-01-10T02:29:01.260Z,83.60
2023-01-10T02:31:44.452Z,81.50
2023-01-10T02:34:21.928Z,79.90
2023-01-10T02:37:01.517Z,80.00
2023-01-10T02:39:38.204Z,82.05
2023-01-10T02:42:10.573Z,82.88
2023-01-10T02:44:46.766Z,81.17
2023-01-10T02:47:16.066Z,83.08
2023-01-10T02:49:48.550Z,85.97
2023-01-10T02:52:22.472Z,86.71
2023-01-10T02:54:55.970Z,88.55
2023-01-10T02:57:37.044Z,90.54
2023-01-10T03:00:32.645Z,91.69
2023-01-10T03:03:17.525Z,90.71
2023-01-10T03:05:58.104Z,91.08
2023-01-10T03:08:35.276Z,96.29
2023-01-10T03:11:07.955Z,94.69
2023-01-10T03:13:44.823Z,96.71
2023-01-10T03:16:16.857Z,96.33
2023-01-10T03:18:52.029Z,98.99
2023-01-10T03:21:25.770Z,97.97
2023-01-10T03:23:58.659Z,100.00
2023-01-10T03:26:32.387Z,100.00
2023-01-10T03:29:03.860Z,100.00
2023-01-10T03:31:43.443Z,100.00
2023-01-10T03:34:13.429Z,100.00
2023-01-10T03:36:54.027Z,100.00
2023-01-10T03:39:32.403Z,100.00
2023-01-10T03:42:10.425Z,100.00
2023-01-10T03:44:48.623Z,100.00
2023-01-10T03:47:27.530Z,100.00
2023-01-10T03:50:00.158Z,100.00
2023-01-10T03:52:33.987Z,100.00
2023-01-10T03:55:05.523Z,100.00
2023-01-10T03:57:36.070Z,100.00
2023-01-10T04:00:06.417Z,100.00
2023-01-10T04:02:36.421Z,100.00
2023-01-10T04:05:07.518Z,100.00
2023-01-10T04:07:37.899Z,100.00
2023-01-10T04:10:10.661Z,100.00
2023-01-10T04:12:39.845Z,100.00
2023-01-10T04:15:09.641Z,100.00
2023-01-10T04:17:39.094Z,100.00
2023-01-10T04:20:14.470Z,100.00
2023-01-10T04:22:46.473Z,100.00
2023-01-10T04:25:18.585Z,100.00
2023-01-10T04:27:49.964Z,100.00
2023-01-10T04:30:20.285Z,100.00
2023-01-10T04:32:49.906Z,100.00
2023-01-10T04:35:19.054Z,100.00
2023-01-10T04:37:50.315Z,100.00
2023-01-10T04:40:28.866Z,100.00
2023-01-10T04:42:58.439Z,100.00
2023-01-10T04:45:27.778Z,100.00
2023-01-10T04:47:57.227Z,100.00
2023-01-10T04:50:26.360Z,100.00
2023-01-10T04:52:56.886Z,100.00
2023-01-10T04:55:26.299Z,100.00
2023-01-10T04:57:55.545Z,100.00
2023-01-10T05:00:25.041Z,100.00
2023-01-10T05:02:57.502Z,100.00
2023-01-10T05:05:26.983Z,100.00
2023-01-10T05:07:58.679Z,100.00
2023-01-10T05:10:28.363Z,100.00
2023-01-10T05:12:57.689Z,100.00
2023-01-10T05:15:28.454Z,100.00
2023-01-10T05:17:59.724Z,100.00
2023-01-10T05:20:29.250Z,100.00
2023-01-10T05:22:59.835Z,100.00
2023-01-10T05:25:29.173Z,100.00
2023-01-10T05:27:58.155Z,100.00
2023-01-10T05:30:27.418Z,100.00
2023-01-10T05:32:56.771Z,100.00
2023-01-10T05:35:26.034Z,100.00
2023-01-10T05:37:55.252Z,100.00
2023-01-10T05:40:25.646Z,100.00
2023-01-10T05:42:56.485Z,100.00
2023-01-10T05:45:25.631Z,100.00
2023-01-10T05:47:55.083Z,100.00
2023-01-10T05:50:24.243Z,100.00
2023-01-10T05:52:53.367Z,100.00
2023-01-10T05:55:22.673Z,100.00
2023-01-10T05:57:53.614Z,100.00
2023-01-10T06:00:25.076Z,100.00
2023-01-10T06:02:56.394Z,100.00
2023-01-10T06:05:26.373Z,100.00
2023-01-10T06:07:56.175Z,100.00
2023-01-10T06:10:27.009Z,100.00
2023-01-10T06:12:58.005Z,100.00
2023-01-10T06:15:28.490Z,100.00
2023-01-10T06:17:57.931Z,100.00
2023-01-10T06:20:27.371Z,100.00
2023-01-10T06:22:58.893Z,100.00
2023-01-10T06:25:31.471Z,100.00
2023-01-10T06:28:04.718Z,100.00
2023-01-10T06:30:35.360Z,100.00
2023-01-10T06:33:07.308Z,100.00
2023-01-10T06:35:37.916Z,100.00
2023-01-10T06:38:07.591Z,100.00
2023-01-10T06:40:37.342Z,100.00
2023-01-10T06:43:09.180Z,100.00
2023-01-10T06:45:39.230Z,100.00
2023-01-10T06:48:17.226Z,100.00
2023-01-10T06:50:48.565Z,100.00
2023-01-10T06:54:21.320Z,100.00
2023-01-10T06:56:51.275Z,100.00
2023-01-10T06:59:26.969Z,100.00
2023-01-10T07:01:56.899Z,100.00
2023-01-10T07:04:27.023Z,100.00
2023-01-10T07:06:56.402Z,100.00
2023-01-10T07:09:26.458Z,100.00
2023-01-10T07:11:55.820Z,100.00
2023-01-10T07:14:27.605Z,100.00
2023-01-10T07:16:57.509Z,100.00
2023-01-10T07:19:27.359Z,100.00
2023-01-10T07:21:56.688Z,100.00
2023-01-10T07:24:29.700Z,100.00
2023-01-10T07:27:02.111Z,100.00
2023-01-10T07:29:33.184Z,100.00
2023-01-10T07:32:21.515Z,100.00
2023-01-10T07:34:56.091Z,100.00
2023-01-10T07:37:29.900Z,100.00
2023-01-10T07:40:04.891Z,100.00
2023-01-10T07:42:42.981Z,100.00
2023-01-10T07:45:16.373Z,100.00
2023-01-10T07:47:45.588Z,100.00
2023-01-10T07:50:36.124Z,100.00
2023-01-10T07:53:07.559Z,100.00
2023-01-10T07:55:42.142Z,100.00
2023-01-10T07:58:22.294Z,100.00
2023-01-10T08:00:59.659Z,100.00
2023-01-10T08:03:31.200Z,100.00
2023-01-10T08:06:03.564Z,100.00
2023-01-10T08:08:34.610Z,100.00
2023-01-10T08:11:06.249Z,100.00
2023-01-10T08:13:36.089Z,100.00
2023-01-10T08:16:09.367Z,100.00
2023-01-10T08:18:43.234Z,100.00
2023-01-10T08:21:14.568Z,100.00
2023-01-10T08:23:46.842Z,100.00
2023-01-10T08:26:17.406Z,100.00
2023-01-10T08:28:47.303Z,100.00
2023-01-10T08:31:19.085Z,100.00
2023-01-10T08:33:57.741Z,100.00
2023-01-10T08:36:41.042Z,100.00
2023-01-10T08:39:15.520Z,100.00
2023-01-10T08:41:47.796Z,100.00
2023-01-10T08:44:20.505Z,100.00
2023-01-10T08:47:01.194Z,100.00
2023-01-10T08:49:31.302Z,100.00
2023-01-10T08:52:02.493Z,93.80
2023-01-10T08:54:33.206Z,90.81
2023-01-10T08:57:06.295Z,90.27
2023-01-10T08:59:39.462Z,87.24
2023-01-10T09:02:15.088Z,91.06
2023-01-10T09:04:47.744Z,86.65
2023-01-10T09:07:17.879Z,86.06
2023-01-10T09:09:47.608Z,86.90
2023-01-10T09:12:37.323Z,85.36
2023-01-10T09:15:11.791Z,87.20
2023-01-10T09:17:45.663Z,80.98
2023-01-10T09:20:15.815Z,81.55
2023-01-10T09:22:45.137Z,85.72
2023-01-10T09:25:17.414Z,85.30
2023-01-10T09:27:46.938Z,84.89
2023-01-10T09:30:20.460Z,82.85
2023-01-10T09:32:54.162Z,80.44
2023-01-10T09:35:24.763Z,78.14
2023-01-10T09:37:56.359Z,73.40
2023-01-10T09:40:44.651Z,74.68
2023-01-10T09:43:23.090Z,80.22
2023-01-10T09:46:01.374Z,81.12
2023-01-10T09:48:42.047Z,79.41
2023-01-10T09:51:25.040Z,69.45
2023-01-10T09:54:10.711Z,73.38
2023-01-10T09:56:43.054Z,75.30
2023-01-10T09:59:17.098Z,76.29
2023-01-10T10:01:48.450Z,75.21
2023-01-10T10:04:25.403Z,78.76
2023-01-10T10:06:56.421Z,72.97
2023-01-10T10:09:30.204Z,75.42
2023-01-10T10:12:15.671Z,78.17
2023-01-10T10:14:58.707Z,72.75
2023-01-10T10:17:39.187Z,68.40
2023-01-10T10:20:24.104Z,68.14
2023-01-10T10:23:06.230Z,67.03
2023-01-10T10:26:02.873Z,68.72
2023-01-10T10:29:20.137Z,69.79
2023-01-10T10:32:02.001Z,71.97
2023-01-10T10:34:36.805Z,71.94
2023-01-10T10:37:15.698Z,73.74
2023-01-10T10:39:48.745Z,75.17
2023-01-10T10:42:20.201Z,74.45
2023-01-10T10:44:54.572Z,75.85
2023-01-10T10:47:25.788Z,72.83
2023-01-10T10:50:00.927Z,72.66
2023-01-10T10:52:35.943Z,71.13
2023-01-10T10:55:07.624Z,65.48
2023-01-10T10:57:43.462Z,71.61
2023-01-10T11:00:24.206Z,67.82
2023-01-10T11:02:59.549Z,71.30
2023-01-10T11:05:40.561Z,71.17
2023-01-10T11:08:34.436Z,72.53
2023-01-10T11:11:12.493Z,71.27
2023-01-10T11:13:48.784Z,66.40
2023-01-10T11:16:31.164Z,66.07
2023-01-10T11:19:23.427Z,64.87
2023-01-10T11:21:57.156Z,66.93
2023-01-10T11:24:34.583Z,64.88
2023-01-10T11:27:15.818Z,66.75
2023-01-10T11:29:48.700Z,68.73
2023-01-10T11:32:22.339Z,67.71
2023-01-10T11:34:55.379Z,70.17
2023-01-10T11:37:29.581Z,70.03
2023-01-10T11:40:24.172Z,74.26
2023-01-10T11:43:00.786Z,71.10
2023-01-10T11:45:33.458Z,74.38
2023-01-10T11:48:09.747Z,65.44
2023-01-10T11:50:46.096Z,67.86
2023-01-10T11:53:35.313Z,63.99
2023-01-10T11:56:08.014Z,64.45
2023-01-10T11:58:38.461Z,65.25
2023-01-10T12:01:08.549Z,64.89
2023-01-10T12:03:40.311Z,66.93
2023-01-10T12:06:18.010Z,66.76
2023-01-10T12:08:49.943Z,66.33
2023-01-10T12:11:30.053Z,61.48
2023-01-10T12:14:01.720Z,61.57
2023-01-10T12:16:35.624Z,67.72
2023-01-10T12:19:14.105Z,65.60
2023-01-10T12:21:46.756Z,66.63
2023-01-10T12:24:24.038Z,65.97
2023-01-10T12:27:00.833Z,68.95
2023-01-10T12:29:35.511Z,68.54
2023-01-10T12:32:09.235Z,64.12
2023-01-10T12:34:45.514Z,65.25
2023-01-10T12:37:20.636Z,65.63
2023-01-10T12:39:54.930Z,68.18
2023-01-10T12:42:55.572Z,66.21
2023-01-10T12:45:28.326Z,67.60
2023-01-10T12:48:05.020Z,69.38
2023-01-10T12:50:40.752Z,69.22
2023-01-10T12:53:26.783Z,68.84
2023-01-10T12:55:59.545Z,68.61
2023-01-10T12:58:37.241Z,68.37
2023-01-10T13:01:08.611Z,65.21
2023-01-10T13:03:39.793Z,66.21
2023-01-10T13:06:12.482Z,66.93
2023-01-10T13:08:43.736Z,69.13
2023-01-10T13:11:16.822Z,68.56
2023-01-10T13:13:55.813Z,66.73
2023-01-10T13:16:32.905Z,66.53
2023-01-10T13:19:05.897Z,66.75
2023-01-10T13:21:36.347Z,65.04
2023-01-10T13:24:08.197Z,65.78
2023-01-10T13:26:51.203Z,68.32
2023-01-10T13:29:24.215Z,69.77
2023-01-10T13:31:57.666Z,69.57
2023-01-10T13:34:33.934Z,69.33
2023-01-10T13:37:06.390Z,65.74
2023-01-10T13:39:38.165Z,65.41
2023-01-10T13:42:48.220Z,66.10
2023-01-10T13:45:24.580Z,66.39
2023-01-10T13:48:35.019Z,64.75
2023-01-10T13:51:19.013Z,65.13
2023-01-10T13:54:06.601Z,64.28
2023-01-10T13:56:38.065Z,62.61
2023-01-10T13:59:31.082Z,62.12
2023-01-10T14:02:21.701Z,62.89
2023-01-10T14:04:54.639Z,60.88
2023-01-10T14:07:28.455Z,62.67
2023-01-10T14:10:03.736Z,61.60
2023-01-10T14:12:36.988Z,61.18
2023-01-10T14:15:24.637Z,60.71
2023-01-10T14:18:08.590Z,59.73
2023-01-10T14:20:38.467Z,59.52
2023-01-10T14:23:10.768Z,58.93
2023-01-10T14:25:40.567Z,58.48
2023-01-10T14:28:22.035Z,58.62
2023-01-10T14:31:01.066Z,56.71
2023-01-10T14:33:33.328Z,56.36
2023-01-10T14:36:07.787Z,56.13
2023-01-10T14:38:40.068Z,55.86
2023-01-10T14:41:13.987Z,55.08
2023-01-10T14:43:47.155Z,55.42
2023-01-10T14:46:20.496Z,54.77
2023-01-10T14:48:52.536Z,55.58
2023-01-10T14:51:24.755Z,56.17
2023-01-10T14:53:58.702Z,54.44
2023-01-10T14:56:37.301Z,54.85
2023-01-10T14:59:19.380Z,54.28
2023-01-10T15:01:49.599Z,55.25
2023-01-10T15:04:22.892Z,54.30
2023-01-10T15:06:53.775Z,55.45
2023-01-10T15:09:24.264Z,54.94
2023-01-10T15:11:56.101Z,53.61
2023-01-10T15:14:27.735Z,54.27
2023-01-10T15:17:02.374Z,52.91
2023-01-10T15:19:37.312Z,54.70
2023-01-10T15:22:19.490Z,55.48
2023-01-10T15:24:59.674Z,54.24
2023-01-10T15:27:29.491Z,53.97
2023-01-10T15:29:59.937Z,54.33
2023-01-10T15:32:34.220Z,53.03
2023-01-10T15:35:06.540Z,54.41
2023-01-10T15:37:41.003Z,54.01
2023-01-10T15:40:23.051Z,53.82
2023-01-10T15:42:53.582Z,54.01
2023-01-10T15:45:31.155Z,53.97
2023-01-10T15:48:04.238Z,54.12
2023-01-10T15:50:39.414Z,54.53
2023-01-10T15:53:11.001Z,55.02
2023-01-10T15:55:45.436Z,53.82
2023-01-10T15:58:20.001Z,53.86
2023-01-10T16:00:51.094Z,52.77
2023-01-10T16:03:25.864Z,53.07
2023-01-10T16:05:59.309Z,52.39
2023-01-10T16:08:32.783Z,53.49
2023-01-10T16:11:04.738Z,52.45
2023-01-10T16:13:34.227Z,52.67
2023-01-10T16:16:11.619Z,51.90
2023-01-10T16:18:40.845Z,52.18
2023-01-10T16:21:13.927Z,52.06
2023-01-10T16:23:46.258Z,51.66
2023-01-10T16:26:16.665Z,52.03
2023-01-10T16:28:46.392Z,51.67
2023-01-10T16:31:15.989Z,51.28
2023-01-10T16:33:46.750Z,51.79
2023-01-10T16:36:20.945Z,52.57
2023-01-10T16:38:50.436Z,52.16
2023-01-10T16:41:37.057Z,51.07
2023-01-10T16:44:06.518Z,51.87
2023-01-10T16:46:36.369Z,51.71
2023-01-10T16:49:06.768Z,51.02
2023-01-10T16:51:40.857Z,51.16
2023-01-10T16:54:15.822Z,51.23
2023-01-10T16:56:45.478Z,50.21
2023-01-10T16:59:16.203Z,52.12
2023-01-10T17:01:50.292Z,51.76
2023-01-10T17:04:23.795Z,51.34
2023-01-10T17:06:56.777Z,51.71
2023-01-10T17:09:28.029Z,51.53
2023-01-10T17:12:02.449Z,52.02
2023-01-10T17:14:32.871Z,51.48
2023-01-10T17:17:04.993Z,51.60
2023-01-10T17:19:34.835Z,52.22
2023-01-10T17:22:05.767Z,51.96
2023-01-10T17:24:36.115Z,51.72
2023-01-10T17:27:06.898Z,52.01
2023-01-10T17:29:37.004Z,51.79
2023-01-10T17:32:06.967Z,51.21
2023-01-10T17:34:38.630Z,52.10
2023-01-10T17:37:11.976Z,52.50
2023-01-10T17:39:42.619Z,52.49
2023-01-10T17:42:18.956Z,52.77
2023-01-10T17:44:49.455Z,53.78
2023-01-10T17:47:19.433Z,53.61
2023-01-10T17:49:54.202Z,54.10
2023-01-10T17:52:25.233Z,54.68
2023-01-10T17:54:54.505Z,56.46
2023-01-10T17:57:25.351Z,58.32
2023-01-10T17:59:54.952Z,59.07
2023-01-10T18:02:24.868Z,59.40
2023-01-10T18:04:54.467Z,60.47
2023-01-10T18:07:26.144Z,60.98
2023-01-10T18:09:56.936Z,65.27
2023-01-10T18:12:29.814Z,70.66
2023-01-10T18:15:00.174Z,71.05
2023-01-10T18:17:30.373Z,80.87
2023-01-10T18:20:00.115Z,87.73
2023-01-10T18:22:48.454Z,92.78
2023-01-10T18:25:17.886Z,100.00
2023-01-10T18:27:51.564Z,100.00
2023-01-10T18:30:24.650Z,100.00
2023-01-10T18:32:56.093Z,100.00
2023-01-10T18:35:52.483Z,100.00
2023-01-10T18:38:24.950Z,100.00
2023-01-10T18:40:55.272Z,100.00
2023-01-10T18:43:25.392Z,100.00
2023-01-10T18:46:18.633Z,100.00
2023-01-10T18:48:50.742Z,100.00
2023-01-10T18:51:22.891Z,100.00
2023-01-10T18:53:56.893Z,100.00
2023-01-10T18:56:27.355Z,100.00
2023-01-10T18:58:59.023Z,100.00
2023-01-10T19:01:33.176Z,100.00
2023-01-10T19:04:07.004Z,100.00
2023-01-10T19:06:37.856Z,100.00
2023-01-10T19:12:02.640Z,100.00
2023-01-10T19:14:32.363Z,100.00
2023-01-10T19:17:03.719Z,100.00
2023-01-10T19:19:35.764Z,100.00
2023-01-10T19:22:05.317Z,100.00
2023-01-10T19:24:38.046Z,100.00
2023-01-10T19:27:09.363Z,100.00
2023-01-10T19:29:38.999Z,100.00
2023-01-10T19:32:10.151Z,100.00
2023-01-10T19:35:29.642Z,100.00
2023-01-10T19:38:01.904Z,100.00
2023-01-10T19:40:35.186Z,100.00
2023-01-10T19:43:05.922Z,100.00
2023-01-10T19:45:45.343Z,100.00
2023-01-10T19:48:18.279Z,100.00
2023-01-10T19:50:50.720Z,100.00
2023-01-10T19:53:51.511Z,100.00
2023-01-10T19:57:10.750Z,100.00
2023-01-10T19:59:58.647Z,100.00
2023-01-10T20:02:43.781Z,100.00
2023-01-10T20:05:18.792Z,100.00
2023-01-10T20:07:53.769Z,100.00
2023-01-10T20:10:28.731Z,100.00
2023-01-10T20:13:01.173Z,100.00
2023-01-10T20:15:37.744Z,100.00
2023-01-10T20:18:08.018Z,100.00
2023-01-10T20:20:41.439Z,100.00
2023-01-10T20:23:12.731Z,100.00
2023-01-10T20:25:43.481Z,100.00
2023-01-10T20:28:15.419Z,100.00
2023-01-10T20:30:46.519Z,100.00
2023-01-10T20:33:16.841Z,100.00
2023-01-10T20:35:56.207Z,100.00
2023-01-10T20:38:27.927Z,100.00
2023-01-10T20:40:58.820Z,100.00
2023-01-10T20:43:32.987Z,100.00
2023-01-10T20:46:06.986Z,100.00
2023-01-10T20:48:39.332Z,100.00
2023-01-10T20:51:13.258Z,100.00
2023-01-10T20:53:42.971Z,100.00
2023-01-10T20:56:16.047Z,100.00
2023-01-10T20:58:47.763Z,100.00
2023-01-10T21:01:28.814Z,100.00
2023-01-10T21:04:04.172Z,100.00
2023-01-10T21:06:36.238Z,100.00
2023-01-10T21:09:08.953Z,100.00
2023-01-10T21:11:56.658Z,100.00
2023-01-10T21:14:42.512Z,100.00
2023-01-10T21:17:13.055Z,100.00
2023-01-10T21:19:46.315Z,100.00
2023-01-10T21:22:18.577Z,100.00
2023-01-10T21:24:48.712Z,100.00
2023-01-10T21:27:18.546Z,100.00
2023-01-10T21:29:49.407Z,100.00
2023-01-10T21:32:21.025Z,100.00
2023-01-10T21:34:50.676Z,100.00
2023-01-10T21:37:20.744Z,100.00
2023-01-10T21:39:51.175Z,100.00
2023-01-10T21:42:38.288Z,100.00
2023-01-10T21:45:11.577Z,100.00
2023-01-10T21:47:41.396Z,100.00
2023-01-10T21:50:13.407Z,100.00
2023-01-10T21:52:43.150Z,100.00
2023-01-10T21:55:15.057Z,100.00
2023-01-10T21:57:45.688Z,100.00
2023-01-10T22:00:19.473Z,100.00
2023-01-10T22:02:58.837Z,100.00
2023-01-10T22:05:28.677Z,100.00
2023-01-10T22:07:59.555Z,100.00
2023-01-10T22:10:30.513Z,100.00
2023-01-10T22:13:00.207Z,100.00
2023-01-10T22:15:30.937Z,100.00
2023-01-10T22:18:01.575Z,100.00
2023-01-10T22:20:57.395Z,100.00
2023-01-10T22:23:29.412Z,100.00
2023-01-10T22:26:03.383Z,100.00
2023-01-10T22:28:33.587Z,100.00
2023-01-10T22:31:09.313Z,100.00
2023-01-10T22:33:47.079Z,100.00
2023-01-10T22:36:20.154Z,100.00
2023-01-10T22:38:50.137Z,100.00
2023-01-10T22:41:26.665Z,100.00
2023-01-10T22:43:57.047Z,100.00
2023-01-10T22:46:26.842Z,100.00
2023-01-10T22:48:55.897Z,100.00
2023-01-10T22:51:28.521Z,100.00
2023-01-10T22:53:59.910Z,100.00
2023-01-10T22:56:30.088Z,100.00
2023-01-10T22:58:59.386Z,100.00
2023-01-10T23:01:32.787Z,100.00
2023-01-10T23:04:02.445Z,100.00
2023-01-10T23:06:33.470Z,100.00
2023-01-10T23:09:04.053Z,100.00
2023-01-10T23:11:34.730Z,100.00
2023-01-10T23:14:04.084Z,100.00
2023-01-10T23:16:33.121Z,100.00
2023-01-10T23:19:02.522Z,100.00
2023-01-10T23:21:33.964Z,100.00
2023-01-10T23:24:07.736Z,100.00
2023-01-10T23:26:37.845Z,100.00
2023-01-10T23:29:07.573Z,100.00
2023-01-10T23:31:39.169Z,100.00
2023-01-10T23:34:09.170Z,100.00
2023-01-10T23:36:40.086Z,100.00
2023-01-10T23:39:09.325Z,100.00
2023-01-10T23:41:38.840Z,100.00
2023-01-10T23:44:08.599Z,100.00
2023-01-10T23:46:37.879Z,100.00
2023-01-10T23:49:07.390Z,100.00
2023-01-10T23:51:37.568Z,100.00
2023-01-10T23:54:08.280Z,100.00
2023-01-10T23:56:37.388Z,100.00
2023-01-10T23:59:06.631Z,100.00
